createdAt,value
2022-09-26T00:00:32.447Z,65.13
2022-09-26T00:02:04.020Z,65.30
2022-09-26T00:03:35.596Z,65.26
2022-09-26T00:05:10.429Z,65.34
2022-09-26T00:06:42.019Z,65.24
2022-09-26T00:08:13.856Z,65.85
2022-09-26T00:09:45.543Z,65.81
2022-09-26T00:11:18.458Z,65.84
2022-09-26T00:12:51.329Z,65.98
2022-09-26T00:14:24.232Z,65.84
2022-09-26T00:15:56.055Z,65.91
2022-09-26T00:17:27.501Z,65.85
2022-09-26T00:18:59.369Z,66.14
2022-09-26T00:20:30.872Z,66.16
2022-09-26T00:22:02.307Z,66.06
2022-09-26T00:23:33.752Z,66.21
2022-09-26T00:25:05.604Z,66.53
2022-09-26T00:26:37.464Z,66.08
2022-09-26T00:28:10.238Z,66.11
2022-09-26T00:29:41.669Z,66.28
2022-09-26T00:31:13.999Z,65.99
2022-09-26T00:32:45.801Z,65.87
2022-09-26T00:34:18.669Z,65.83
2022-09-26T00:35:51.052Z,65.98
2022-09-26T00:37:22.529Z,66.29
2022-09-26T00:38:54.014Z,66.42
2022-09-26T00:40:27.079Z,66.53
2022-09-26T00:41:58.608Z,66.20
2022-09-26T00:43:32.341Z,66.18
2022-09-26T00:45:04.210Z,66.04
2022-09-26T00:46:37.435Z,66.09
2022-09-26T00:48:10.593Z,66.38
2022-09-26T00:49:44.428Z,66.13
2022-09-26T00:51:15.930Z,66.29
2022-09-26T00:52:51.182Z,66.73
2022-09-26T00:54:23.359Z,66.52
2022-09-26T00:55:58.676Z,66.55
2022-09-26T00:57:33.357Z,67.12
2022-09-26T00:59:08.808Z,66.92
2022-09-26T01:00:42.410Z,67.03
2022-09-26T01:02:15.041Z,67.28
2022-09-26T01:03:48.616Z,67.70
2022-09-26T01:05:21.976Z,67.76
2022-09-26T01:06:53.933Z,67.46
2022-09-26T01:08:28.470Z,67.41
2022-09-26T01:10:01.279Z,67.61
2022-09-26T01:11:33.973Z,67.99
2022-09-26T01:13:06.724Z,67.77
2022-09-26T01:14:41.138Z,67.66
2022-09-26T01:16:12.698Z,68.02
2022-09-26T01:17:45.476Z,67.95
2022-09-26T01:19:21.923Z,68.35
2022-09-26T01:20:57.173Z,68.80
2022-09-26T01:22:43.229Z,68.32
2022-09-26T01:24:26.628Z,69.11
2022-09-26T01:26:28.815Z,69.01
2022-09-26T01:28:07.569Z,68.94
2022-09-26T01:29:53.882Z,69.50
2022-09-26T01:31:33.280Z,69.53
2022-09-26T01:33:19.254Z,69.37
2022-09-26T01:34:57.046Z,69.70
2022-09-26T01:36:44.772Z,69.96
2022-09-26T01:38:23.321Z,70.01
2022-09-26T01:39:59.029Z,70.28
2022-09-26T01:41:37.240Z,70.62
2022-09-26T01:43:13.354Z,70.39
2022-09-26T01:44:48.779Z,70.87
2022-09-26T01:46:25.098Z,70.63
2022-09-26T01:48:01.141Z,70.47
2022-09-26T01:49:35.003Z,70.72
2022-09-26T01:51:09.834Z,70.68
2022-09-26T01:52:44.932Z,70.58
2022-09-26T01:54:17.927Z,71.12
2022-09-26T01:55:53.365Z,71.61
2022-09-26T01:57:28.336Z,71.20
2022-09-26T01:59:03.406Z,71.24
2022-09-26T02:00:36.349Z,71.76
2022-09-26T02:02:12.138Z,71.00
2022-09-26T02:03:46.684Z,71.53
2022-09-26T02:05:20.814Z,71.07
2022-09-26T02:06:55.396Z,71.26
2022-09-26T02:08:30.921Z,71.76
2022-09-26T02:10:07.697Z,71.49
2022-09-26T02:11:41.205Z,71.78
2022-09-26T02:13:14.858Z,71.67
2022-09-26T02:14:49.558Z,72.00
2022-09-26T02:16:25.071Z,71.96
2022-09-26T02:18:00.604Z,72.05
2022-09-26T02:19:36.871Z,71.65
2022-09-26T02:21:12.058Z,72.10
2022-09-26T02:22:43.961Z,72.34
2022-09-26T02:24:19.694Z,72.16
2022-09-26T02:25:51.434Z,72.40
2022-09-26T02:27:22.956Z,72.12
2022-09-26T02:28:55.876Z,72.33
2022-09-26T02:30:27.354Z,72.23
2022-09-26T02:32:02.905Z,72.68
2022-09-26T02:33:34.995Z,72.06
2022-09-26T02:35:34.769Z,72.85
2022-09-26T02:37:07.810Z,72.28
2022-09-26T02:38:39.241Z,72.79
2022-09-26T02:40:42.164Z,72.85
2022-09-26T02:42:19.047Z,73.20
2022-09-26T02:44:00.325Z,73.20
2022-09-26T02:45:36.082Z,73.68
2022-09-26T02:47:20.584Z,73.92
2022-09-26T02:49:00.155Z,73.71
2022-09-26T02:50:49.258Z,73.99
2022-09-26T02:52:31.431Z,73.70
2022-09-26T02:54:09.616Z,73.53
2022-09-26T02:55:57.208Z,74.04
2022-09-26T02:57:32.696Z,73.78
2022-09-26T02:59:07.959Z,73.60
2022-09-26T03:00:48.231Z,73.75
2022-09-26T03:02:23.681Z,74.01
2022-09-26T03:04:18.299Z,73.62
2022-09-26T03:05:52.068Z,73.57
2022-09-26T03:07:28.141Z,73.52
2022-09-26T03:09:02.032Z,73.55
2022-09-26T03:10:34.170Z,73.87
2022-09-26T03:12:07.076Z,74.25
2022-09-26T03:13:39.305Z,74.13
2022-09-26T03:15:12.252Z,73.72
2022-09-26T03:16:44.894Z,74.03
2022-09-26T03:18:19.193Z,73.85
2022-09-26T03:19:55.025Z,73.90
2022-09-26T03:21:27.335Z,73.75
2022-09-26T03:22:59.143Z,74.42
2022-09-26T03:24:32.744Z,74.02
2022-09-26T03:26:07.625Z,74.26
2022-09-26T03:27:44.001Z,73.71
2022-09-26T03:29:15.709Z,73.67
2022-09-26T03:30:47.297Z,74.10
2022-09-26T03:32:32.260Z,74.06
2022-09-26T03:34:03.787Z,73.73
2022-09-26T03:35:36.095Z,74.06
2022-09-26T03:37:09.330Z,73.78
2022-09-26T03:38:42.502Z,73.67
2022-09-26T03:40:29.868Z,74.23
2022-09-26T03:42:27.433Z,73.88
2022-09-26T03:43:59.723Z,73.94
2022-09-26T03:45:41.155Z,74.49
2022-09-26T03:47:20.109Z,73.85
2022-09-26T03:48:54.708Z,74.23
2022-09-26T03:50:26.334Z,74.73
2022-09-26T03:51:57.813Z,74.29
2022-09-26T03:53:30.907Z,74.53
2022-09-26T03:55:02.406Z,74.18
2022-09-26T03:56:35.299Z,73.69
2022-09-26T03:58:07.038Z,74.24
2022-09-26T03:59:42.441Z,73.65
2022-09-26T04:01:16.641Z,73.64
2022-09-26T04:02:48.443Z,73.12
2022-09-26T04:04:40.173Z,73.31
2022-09-26T04:06:13.598Z,73.15
2022-09-26T04:07:45.249Z,73.31
2022-09-26T04:09:17.533Z,73.25
2022-09-26T04:10:53.960Z,73.41
2022-09-26T04:12:27.795Z,73.30
2022-09-26T04:13:59.249Z,72.93
2022-09-26T04:15:35.585Z,73.18
2022-09-26T04:17:15.768Z,73.03
2022-09-26T04:18:50.135Z,72.63
2022-09-26T04:20:21.856Z,73.42
2022-09-26T04:21:53.603Z,72.59
2022-09-26T04:23:27.079Z,72.46
2022-09-26T04:24:58.596Z,72.23
2022-09-26T04:26:30.145Z,72.79
2022-09-26T04:28:03.127Z,73.30
2022-09-26T04:29:34.862Z,72.43
2022-09-26T04:31:15.516Z,72.06
2022-09-26T04:32:54.946Z,72.53
2022-09-26T04:34:41.156Z,72.06
2022-09-26T04:36:14.594Z,71.80
2022-09-26T04:37:46.153Z,72.34
2022-09-26T04:39:18.188Z,71.61
2022-09-26T04:40:51.021Z,71.69
2022-09-26T04:42:25.083Z,71.55
2022-09-26T04:43:58.630Z,71.07
2022-09-26T04:45:30.158Z,71.92
2022-09-26T04:47:01.726Z,71.52
2022-09-26T04:48:51.539Z,71.47
2022-09-26T04:50:25.074Z,71.22
2022-09-26T04:52:09.190Z,71.49
2022-09-26T04:53:41.557Z,70.77
2022-09-26T04:55:25.640Z,71.22
2022-09-26T04:56:59.264Z,70.61
2022-09-26T04:58:30.721Z,70.75
2022-09-26T05:00:04.341Z,70.89
2022-09-26T05:01:37.265Z,70.53
2022-09-26T05:03:16.247Z,70.69
2022-09-26T05:04:48.202Z,70.70
2022-09-26T05:06:20.408Z,71.66
2022-09-26T05:07:54.209Z,71.50
2022-09-26T05:09:36.301Z,71.48
2022-09-26T05:11:16.280Z,71.40
2022-09-26T05:12:47.868Z,71.15
2022-09-26T05:14:19.327Z,71.24
2022-09-26T05:15:55.257Z,71.86
2022-09-26T05:17:27.029Z,71.28
2022-09-26T05:19:01.324Z,71.20
2022-09-26T05:20:33.581Z,71.00
2022-09-26T05:22:05.113Z,71.03
2022-09-26T05:23:55.264Z,70.78
2022-09-26T05:25:47.346Z,70.70
2022-09-26T05:27:21.142Z,70.54
2022-09-26T05:28:53.767Z,70.74
2022-09-26T05:30:31.253Z,70.65
2022-09-26T05:32:04.559Z,70.61
2022-09-26T05:33:40.624Z,70.28
2022-09-26T05:35:13.349Z,70.16
2022-09-26T05:36:46.217Z,69.74
2022-09-26T05:38:17.692Z,70.05
2022-09-26T05:40:08.488Z,69.53
2022-09-26T05:41:44.562Z,69.52
2022-09-26T05:43:16.342Z,69.02
2022-09-26T05:44:48.342Z,68.73
2022-09-26T05:46:19.920Z,68.97
2022-09-26T05:47:56.211Z,68.39
2022-09-26T05:49:27.791Z,67.92
2022-09-26T05:51:02.959Z,67.97
2022-09-26T05:52:34.405Z,68.37
2022-09-26T05:54:05.875Z,67.47
2022-09-26T05:55:40.252Z,67.80
2022-09-26T05:57:14.471Z,67.29
2022-09-26T05:58:54.948Z,66.81
2022-09-26T06:00:47.474Z,66.74
2022-09-26T06:02:21.097Z,67.20
2022-09-26T06:04:12.797Z,66.98
2022-09-26T06:06:03.329Z,66.04
2022-09-26T06:07:36.928Z,66.34
2022-09-26T06:09:09.242Z,66.18
2022-09-26T06:11:14.253Z,65.65
2022-09-26T06:12:50.687Z,65.86
2022-09-26T06:14:25.352Z,65.71
2022-09-26T06:16:00.450Z,65.32
2022-09-26T06:17:32.440Z,65.84
2022-09-26T06:19:03.888Z,65.61
2022-09-26T06:20:36.731Z,65.65
2022-09-26T06:22:08.261Z,65.10
2022-09-26T06:23:39.702Z,65.45
2022-09-26T06:25:12.867Z,65.35
2022-09-26T06:26:44.885Z,64.80
2022-09-26T06:28:16.587Z,65.42
2022-09-26T06:29:48.072Z,65.18
2022-09-26T06:31:19.948Z,65.42
2022-09-26T06:33:10.114Z,65.11
2022-09-26T06:34:59.936Z,64.76
2022-09-26T06:36:53.244Z,64.44
2022-09-26T06:38:24.672Z,64.76
2022-09-26T06:39:59.346Z,64.41
2022-09-26T06:41:31.152Z,64.71
2022-09-26T06:43:02.755Z,64.42
2022-09-26T06:44:53.273Z,64.53
2022-09-26T06:46:33.357Z,64.12
2022-09-26T06:48:23.712Z,64.60
2022-09-26T06:50:22.286Z,64.97
2022-09-26T06:51:58.873Z,64.79
2022-09-26T06:53:31.362Z,64.81
2022-09-26T06:55:04.752Z,65.26
2022-09-26T06:56:36.688Z,65.61
2022-09-26T06:58:08.561Z,65.67
2022-09-26T06:59:53.041Z,65.10
2022-09-26T07:01:42.314Z,64.80
2022-09-26T07:03:27.198Z,65.32
2022-09-26T07:05:10.004Z,64.88
2022-09-26T07:06:46.309Z,65.43
2022-09-26T07:08:25.834Z,65.13
2022-09-26T07:10:10.855Z,64.93
2022-09-26T07:12:13.491Z,65.56
2022-09-26T07:13:42.223Z,65.86
2022-09-26T07:15:14.984Z,65.64
2022-09-26T07:16:48.266Z,65.76
2022-09-26T07:18:46.455Z,65.68
2022-09-26T07:20:22.017Z,66.10
2022-09-26T07:22:08.008Z,66.43
2022-09-26T07:23:48.524Z,66.04
2022-09-26T07:25:23.034Z,65.72
2022-09-26T07:26:55.224Z,66.07
2022-09-26T07:28:27.811Z,66.25
2022-09-26T07:29:59.473Z,66.55
2022-09-26T07:31:31.988Z,66.58
2022-09-26T07:33:17.352Z,67.38
2022-09-26T07:34:55.688Z,67.15
2022-09-26T07:36:28.041Z,67.04
2022-09-26T07:37:59.731Z,67.53
2022-09-26T07:39:32.654Z,67.53
2022-09-26T07:41:04.404Z,67.79
2022-09-26T07:42:38.689Z,67.72
2022-09-26T07:46:20.487Z,68.40
2022-09-26T07:48:13.860Z,68.19
2022-09-26T07:50:12.852Z,68.80
2022-09-26T07:52:07.610Z,69.57
2022-09-26T07:54:11.114Z,68.95
2022-09-26T07:56:19.584Z,69.38
2022-09-26T07:58:11.096Z,69.20
2022-09-26T08:00:01.425Z,68.86
2022-09-26T08:02:02.234Z,68.54
2022-09-26T08:03:38.767Z,69.56
2022-09-26T08:05:20.768Z,69.46
2022-09-26T08:06:54.269Z,69.28
2022-09-26T08:08:25.953Z,69.56
2022-09-26T08:10:05.447Z,69.02
2022-09-26T08:12:06.892Z,69.47
2022-09-26T08:13:50.447Z,69.84
2022-09-26T08:15:32.047Z,69.98
2022-09-26T08:17:14.083Z,69.69
2022-09-26T08:18:46.045Z,69.69
2022-09-26T08:20:18.379Z,69.41
2022-09-26T08:21:50.740Z,69.87
2022-09-26T08:23:23.526Z,70.00
2022-09-26T08:25:14.999Z,69.54
2022-09-26T08:26:56.778Z,70.10
2022-09-26T08:28:35.936Z,69.68
2022-09-26T08:30:08.329Z,68.85
2022-09-26T08:31:39.988Z,69.00
2022-09-26T08:33:12.420Z,68.77
2022-09-26T08:34:44.333Z,68.94
2022-09-26T08:36:52.053Z,69.28
2022-09-26T08:38:38.188Z,69.29
2022-09-26T08:40:43.902Z,68.97
2022-09-26T08:42:40.273Z,69.55
2022-09-26T08:44:38.190Z,69.48
2022-09-26T08:47:02.143Z,68.88
2022-09-26T08:49:08.262Z,68.69
2022-09-26T08:50:45.234Z,68.61
2022-09-26T08:52:26.177Z,68.91
2022-09-26T08:54:02.880Z,68.85
2022-09-26T08:55:36.647Z,68.66
2022-09-26T08:57:15.886Z,68.23
2022-09-26T08:58:52.028Z,68.37
2022-09-26T09:00:27.325Z,68.27
2022-09-26T09:02:12.383Z,68.93
2022-09-26T09:03:55.685Z,68.87
2022-09-26T09:05:28.483Z,68.63
2022-09-26T09:07:05.430Z,68.85
2022-09-26T09:08:38.723Z,68.54
2022-09-26T09:10:39.821Z,68.35
2022-09-26T09:12:31.371Z,68.04
2022-09-26T09:14:33.856Z,67.79
2022-09-26T09:16:32.749Z,68.47
2022-09-26T09:18:17.525Z,67.80
2022-09-26T09:20:34.131Z,68.54
2022-09-26T09:22:41.666Z,68.84
2022-09-26T09:24:22.745Z,69.07
2022-09-26T09:28:05.570Z,69.69
2022-09-26T09:29:52.493Z,69.03
2022-09-26T09:32:04.764Z,69.29
2022-09-26T09:34:02.270Z,69.25
2022-09-26T09:35:43.320Z,69.56
2022-09-26T09:37:41.827Z,69.21
2022-09-26T09:39:27.993Z,69.45
2022-09-26T09:41:07.304Z,69.77
2022-09-26T09:42:40.619Z,69.68
2022-09-26T09:44:18.749Z,69.37
2022-09-26T09:45:51.321Z,69.48
2022-09-26T09:47:27.130Z,69.11
2022-09-26T09:49:02.238Z,69.38
2022-09-26T09:50:39.761Z,68.91
2022-09-26T09:52:20.041Z,68.91
2022-09-26T09:54:01.885Z,69.18
2022-09-26T09:55:38.573Z,68.89
2022-09-26T09:57:19.752Z,69.26
2022-09-26T09:58:59.125Z,69.71
2022-09-26T10:00:32.917Z,69.05
2022-09-26T10:02:22.802Z,69.49
2022-09-26T10:04:01.225Z,69.41
2022-09-26T10:05:36.757Z,69.41
2022-09-26T10:07:08.911Z,68.92
2022-09-26T10:08:42.532Z,68.72
2022-09-26T10:10:37.761Z,67.54
2022-09-26T10:12:48.058Z,67.99
2022-09-26T10:14:42.678Z,68.29
2022-09-26T10:16:15.336Z,67.36
2022-09-26T10:18:23.366Z,67.48
2022-09-26T10:20:04.850Z,67.01
2022-09-26T10:21:43.321Z,67.45
2022-09-26T10:23:20.009Z,67.93
2022-09-26T10:24:53.240Z,67.70
2022-09-26T10:26:34.689Z,67.69
2022-09-26T10:28:21.897Z,67.73
2022-09-26T10:29:56.644Z,67.57
2022-09-26T10:31:29.791Z,67.68
2022-09-26T10:33:23.753Z,67.39
2022-09-26T10:35:19.938Z,67.06
2022-09-26T10:36:52.599Z,66.85
2022-09-26T10:38:27.312Z,67.08
2022-09-26T10:40:45.637Z,66.64
2022-09-26T10:42:20.064Z,66.66
2022-09-26T10:43:54.442Z,65.80
2022-09-26T10:45:44.432Z,66.03
2022-09-26T10:47:43.608Z,65.68
2022-09-26T10:49:55.766Z,65.12
2022-09-26T10:51:54.493Z,65.27
2022-09-26T10:53:31.131Z,65.38
2022-09-26T10:55:04.897Z,64.78
2022-09-26T10:56:37.775Z,65.43
2022-09-26T10:58:15.234Z,65.24
2022-09-26T10:59:48.311Z,64.38
2022-09-26T11:01:22.707Z,63.94
2022-09-26T11:02:54.296Z,63.80
2022-09-26T11:04:45.923Z,63.45
2022-09-26T11:06:43.998Z,63.59
2022-09-26T11:08:22.942Z,63.33
2022-09-26T11:10:14.375Z,63.58
2022-09-26T11:11:55.287Z,62.98
2022-09-26T11:13:32.190Z,62.97
2022-09-26T11:15:12.657Z,62.71
2022-09-26T11:16:51.205Z,62.44
2022-09-26T11:18:26.056Z,62.05
2022-09-26T11:20:02.604Z,62.11
2022-09-26T11:21:41.247Z,62.02
2022-09-26T11:23:21.031Z,62.52
2022-09-26T11:24:59.317Z,61.75
2022-09-26T11:26:34.112Z,61.11
2022-09-26T11:28:10.560Z,61.36
2022-09-26T11:30:14.939Z,60.64
2022-09-26T11:31:56.058Z,60.65
2022-09-26T11:33:30.995Z,60.65
2022-09-26T11:35:43.933Z,61.28
2022-09-26T11:37:30.495Z,60.92
2022-09-26T11:39:07.492Z,59.69
2022-09-26T11:41:07.228Z,59.35
2022-09-26T11:42:48.979Z,59.85
2022-09-26T11:44:35.403Z,59.64
2022-09-26T11:46:34.658Z,59.61
2022-09-26T11:48:37.324Z,60.13
2022-09-26T11:50:40.201Z,60.13
2022-09-26T11:52:29.564Z,59.99
2022-09-26T11:54:12.816Z,59.20
2022-09-26T11:55:54.332Z,58.85
2022-09-26T11:57:34.022Z,58.39
2022-09-26T11:59:17.228Z,58.28
2022-09-26T12:00:53.584Z,58.65
2022-09-26T12:02:38.112Z,58.63
2022-09-26T12:04:27.166Z,57.80
2022-09-26T12:06:01.832Z,58.05
2022-09-26T12:07:35.682Z,58.95
2022-09-26T12:09:15.726Z,58.11
2022-09-26T12:10:54.508Z,58.21
2022-09-26T12:12:34.078Z,58.71
2022-09-26T12:14:15.583Z,59.47
2022-09-26T12:15:55.890Z,59.74
2022-09-26T12:17:36.153Z,59.81
2022-09-26T12:19:16.713Z,60.30
2022-09-26T12:20:57.157Z,60.74
2022-09-26T12:22:33.311Z,61.08
2022-09-26T12:24:06.781Z,61.46
2022-09-26T12:25:43.276Z,61.33
2022-09-26T12:27:20.314Z,60.87
2022-09-26T12:29:09.034Z,61.24
2022-09-26T12:30:48.842Z,61.00
2022-09-26T12:32:25.631Z,61.99
2022-09-26T12:34:07.350Z,62.81
2022-09-26T12:35:43.777Z,62.73
2022-09-26T12:37:25.533Z,62.99
2022-09-26T12:39:10.234Z,63.39
2022-09-26T12:40:48.870Z,63.96
2022-09-26T12:42:27.290Z,64.44
2022-09-26T12:44:07.747Z,64.80
2022-09-26T12:45:53.123Z,65.20
2022-09-26T12:47:41.090Z,66.07
2022-09-26T12:49:21.644Z,66.21
2022-09-26T12:50:59.113Z,66.59
2022-09-26T12:52:37.499Z,65.65
2022-09-26T12:54:23.527Z,65.96
2022-09-26T12:56:01.211Z,66.27
2022-09-26T12:57:38.630Z,66.12
2022-09-26T12:59:16.527Z,66.18
2022-09-26T13:00:54.218Z,66.23
2022-09-26T13:02:36.096Z,66.33
2022-09-26T13:04:17.842Z,66.52
2022-09-26T13:06:08.982Z,67.13
2022-09-26T13:07:44.615Z,66.96
2022-09-26T13:09:21.958Z,66.78
2022-09-26T13:11:03.358Z,67.05
2022-09-26T13:12:43.106Z,67.22
2022-09-26T13:14:27.420Z,67.22
2022-09-26T13:16:05.045Z,67.30
2022-09-26T13:17:41.575Z,66.80
2022-09-26T13:19:16.493Z,67.51
2022-09-26T13:20:50.065Z,66.93
2022-09-26T13:22:29.360Z,67.09
2022-09-26T13:24:05.056Z,67.16
2022-09-26T13:25:44.825Z,66.31
2022-09-26T13:27:22.141Z,66.98
2022-09-26T13:29:16.140Z,67.55
2022-09-26T13:30:50.088Z,67.62
2022-09-26T13:32:26.830Z,67.67
2022-09-26T13:34:02.668Z,67.02
2022-09-26T13:35:35.936Z,67.79
2022-09-26T13:37:10.846Z,67.38
2022-09-26T13:38:45.932Z,67.40
2022-09-26T13:40:24.425Z,67.29
2022-09-26T13:42:01.800Z,67.09
2022-09-26T13:43:43.490Z,67.71
2022-09-26T13:45:21.098Z,67.85
2022-09-26T13:47:05.009Z,67.31
2022-09-26T13:48:41.888Z,67.97
2022-09-26T13:50:18.498Z,68.06
2022-09-26T13:52:04.964Z,67.55
2022-09-26T13:53:42.761Z,68.21
2022-09-26T13:55:18.372Z,68.92
2022-09-26T13:56:50.349Z,68.44
2022-09-26T13:58:25.262Z,68.94
2022-09-26T13:59:56.742Z,69.24
2022-09-26T14:01:28.345Z,69.22
2022-09-26T14:03:19.198Z,69.37
2022-09-26T14:04:52.770Z,69.40
2022-09-26T14:06:28.799Z,69.43
2022-09-26T14:08:38.768Z,69.47
2022-09-26T14:10:18.454Z,69.60
2022-09-26T14:11:51.311Z,70.38
2022-09-26T14:13:33.252Z,69.86
2022-09-26T14:15:16.876Z,70.34
2022-09-26T14:16:49.180Z,70.31
2022-09-26T14:18:28.103Z,70.79
2022-09-26T14:20:04.793Z,70.90
2022-09-26T14:21:41.049Z,71.04
2022-09-26T14:23:33.069Z,71.40
2022-09-26T14:25:24.644Z,71.74
2022-09-26T14:27:14.828Z,71.78
2022-09-26T14:28:49.983Z,71.91
2022-09-26T14:30:26.480Z,72.06
2022-09-26T14:32:01.306Z,71.86
2022-09-26T14:33:33.458Z,72.46
2022-09-26T14:35:16.674Z,72.80
2022-09-26T14:36:49.367Z,73.20
2022-09-26T14:38:21.254Z,73.64
2022-09-26T14:40:00.420Z,73.92
2022-09-26T14:41:33.388Z,74.09
2022-09-26T14:43:11.463Z,74.02
2022-09-26T14:44:48.577Z,74.80
2022-09-26T14:46:23.758Z,74.77
2022-09-26T14:48:13.544Z,74.57
2022-09-26T14:49:52.109Z,75.04
2022-09-26T14:51:27.573Z,75.23
2022-09-26T14:53:01.856Z,75.30
2022-09-26T14:54:36.887Z,75.46
2022-09-26T14:56:10.064Z,75.21
2022-09-26T14:57:41.639Z,75.31
2022-09-26T14:59:40.278Z,75.07
2022-09-26T15:01:18.000Z,75.52
2022-09-26T15:02:57.592Z,75.62
2022-09-26T15:04:32.951Z,75.50
2022-09-26T15:06:08.719Z,75.85
2022-09-26T15:07:45.602Z,75.93
2022-09-26T15:09:18.618Z,76.06
2022-09-26T15:10:51.076Z,75.74
2022-09-26T15:12:26.018Z,75.77
2022-09-26T15:13:59.798Z,75.75
2022-09-26T15:15:41.564Z,75.92
2022-09-26T15:17:16.534Z,76.16
2022-09-26T15:18:50.211Z,76.16
2022-09-26T15:20:22.648Z,76.12
2022-09-26T15:21:58.346Z,76.24
2022-09-26T15:23:32.883Z,76.03
2022-09-26T15:25:08.366Z,75.99
2022-09-26T15:26:42.831Z,75.78
2022-09-26T15:28:14.668Z,76.32
2022-09-26T15:29:49.318Z,76.52
2022-09-26T15:31:22.824Z,75.35
2022-09-26T15:32:56.194Z,75.70
2022-09-26T15:34:31.681Z,75.92
2022-09-26T15:36:06.327Z,75.31
2022-09-26T15:37:38.086Z,74.53
2022-09-26T15:39:24.463Z,73.75
2022-09-26T15:41:01.305Z,72.85
2022-09-26T15:42:51.385Z,72.46
2022-09-26T15:44:24.015Z,72.47
2022-09-26T15:45:58.180Z,71.98
2022-09-26T15:47:42.883Z,72.16
2022-09-26T15:49:18.247Z,71.82
2022-09-26T15:50:51.652Z,72.39
2022-09-26T15:52:23.267Z,71.28
2022-09-26T15:53:57.763Z,71.55
2022-09-26T15:55:30.883Z,71.96
2022-09-26T15:57:07.940Z,72.06
2022-09-26T15:58:45.343Z,71.34
2022-09-26T16:00:17.579Z,71.61
2022-09-26T16:01:49.368Z,71.50
2022-09-26T16:03:34.313Z,71.79
2022-09-26T16:05:12.889Z,71.45
2022-09-26T16:06:52.720Z,71.99
2022-09-26T16:08:27.563Z,73.00
2022-09-26T16:09:59.506Z,73.76
2022-09-26T16:11:32.789Z,73.77
2022-09-26T16:13:05.764Z,73.68
2022-09-26T16:14:41.602Z,73.99
2022-09-26T16:16:15.789Z,74.51
2022-09-26T16:17:50.568Z,75.16
2022-09-26T16:19:29.764Z,74.81
2022-09-26T16:21:15.099Z,74.97
2022-09-26T16:22:51.016Z,75.19
2022-09-26T16:24:29.271Z,75.12
2022-09-26T16:26:00.998Z,75.55
2022-09-26T16:27:34.000Z,75.55
2022-09-26T16:29:08.350Z,76.26
2022-09-26T16:30:41.599Z,76.31
2022-09-26T16:32:17.944Z,76.32
2022-09-26T16:33:50.833Z,76.50
2022-09-26T16:35:28.623Z,76.56
2022-09-26T16:37:03.177Z,76.93
2022-09-26T16:38:35.962Z,77.15
2022-09-26T16:40:17.188Z,77.49
2022-09-26T16:42:01.696Z,77.07
2022-09-26T16:43:36.195Z,77.39
2022-09-26T16:45:13.933Z,77.22
2022-09-26T16:46:49.019Z,77.18
2022-09-26T16:48:34.811Z,77.21
2022-09-26T16:50:26.490Z,76.26
2022-09-26T16:52:16.482Z,75.32
2022-09-26T16:53:49.677Z,74.85
2022-09-26T16:55:21.953Z,75.44
2022-09-26T16:56:53.458Z,74.60
2022-09-26T16:58:25.999Z,74.16
2022-09-26T17:00:18.618Z,74.31
2022-09-26T17:01:53.572Z,74.89
2022-09-26T17:03:26.419Z,74.94
2022-09-26T17:04:58.321Z,74.92
2022-09-26T17:06:30.889Z,75.26
2022-09-26T17:08:02.464Z,75.65
2022-09-26T17:09:34.382Z,75.82
2022-09-26T17:11:13.429Z,75.42
2022-09-26T17:12:48.925Z,75.75
2022-09-26T17:14:22.281Z,75.50
2022-09-26T17:16:01.001Z,76.08
2022-09-26T17:17:34.626Z,75.97
2022-09-26T17:19:06.221Z,76.12
2022-09-26T17:20:38.928Z,76.03
2022-09-26T17:22:13.125Z,76.01
2022-09-26T17:23:44.724Z,76.03
2022-09-26T17:25:16.291Z,76.00
2022-09-26T17:26:50.537Z,75.85
2022-09-26T17:28:26.066Z,76.46
2022-09-26T17:29:59.511Z,76.69
2022-09-26T17:31:34.518Z,76.87
2022-09-26T17:33:10.237Z,76.71
2022-09-26T17:34:41.889Z,77.07
2022-09-26T17:36:18.143Z,77.14
2022-09-26T17:37:49.703Z,76.77
2022-09-26T17:39:25.439Z,77.34
2022-09-26T17:40:57.510Z,77.81
2022-09-26T17:42:30.280Z,77.33
2022-09-26T17:44:02.020Z,77.71
2022-09-26T17:45:35.020Z,78.00
2022-09-26T17:47:07.138Z,78.87
2022-09-26T17:48:40.924Z,78.71
2022-09-26T17:50:16.832Z,78.35
2022-09-26T17:51:49.074Z,79.02
2022-09-26T17:53:20.829Z,79.19
2022-09-26T17:54:55.699Z,79.28
2022-09-26T17:56:27.343Z,79.41
2022-09-26T17:57:59.689Z,80.18
2022-09-26T17:59:31.291Z,79.44
2022-09-26T18:01:04.353Z,79.37
2022-09-26T18:02:37.389Z,80.03
2022-09-26T18:04:17.439Z,79.96
2022-09-26T18:05:49.301Z,80.59
2022-09-26T18:07:22.355Z,80.64
2022-09-26T18:08:54.977Z,81.21
2022-09-26T18:10:30.500Z,80.21
2022-09-26T18:12:03.951Z,80.57
2022-09-26T18:13:36.636Z,80.77
2022-09-26T18:15:13.572Z,80.33
2022-09-26T18:16:46.507Z,80.51
2022-09-26T18:18:18.894Z,81.17
2022-09-26T18:19:52.038Z,80.05
2022-09-26T18:21:24.167Z,80.42
2022-09-26T18:22:55.718Z,80.42
2022-09-26T18:24:28.634Z,80.54
2022-09-26T18:26:00.291Z,80.72
2022-09-26T18:27:36.715Z,80.80
2022-09-26T18:29:10.855Z,81.29
2022-09-26T18:30:42.943Z,81.18
2022-09-26T18:32:19.814Z,81.46
2022-09-26T18:33:51.365Z,81.33
2022-09-26T18:35:25.329Z,80.89
2022-09-26T18:37:00.378Z,80.13
2022-09-26T18:38:32.022Z,80.34
2022-09-26T18:40:04.498Z,79.59
2022-09-26T18:41:36.996Z,79.97
2022-09-26T18:43:11.144Z,79.46
2022-09-26T18:44:43.024Z,80.25
2022-09-26T18:46:16.718Z,80.53
2022-09-26T18:47:49.194Z,80.46
2022-09-26T18:49:21.118Z,81.09
2022-09-26T18:50:54.419Z,80.58
2022-09-26T18:52:26.295Z,80.89
2022-09-26T18:53:57.901Z,80.35
2022-09-26T18:55:48.461Z,80.21
2022-09-26T18:57:38.374Z,80.12
2022-09-26T18:59:10.154Z,80.33
2022-09-26T19:00:41.879Z,80.21
2022-09-26T19:02:19.494Z,79.54
2022-09-26T19:03:51.550Z,80.21
2022-09-26T19:05:23.054Z,80.82
2022-09-26T19:06:58.870Z,81.01
2022-09-26T19:08:33.530Z,81.57
2022-09-26T19:10:05.258Z,81.92
2022-09-26T19:11:36.953Z,80.87
2022-09-26T19:13:10.005Z,81.08
2022-09-26T19:14:41.832Z,80.82
2022-09-26T19:16:13.481Z,81.33
2022-09-26T19:17:45.079Z,81.93
2022-09-26T19:19:16.927Z,81.69
2022-09-26T19:20:48.821Z,81.70
2022-09-26T19:22:21.726Z,82.24
2022-09-26T19:23:53.747Z,81.40
2022-09-26T19:25:25.838Z,81.83
2022-09-26T19:26:58.444Z,82.24
2022-09-26T19:28:32.602Z,82.66
2022-09-26T19:30:05.169Z,81.63
2022-09-26T19:31:36.732Z,82.02
2022-09-26T19:33:09.354Z,81.86
2022-09-26T19:34:40.911Z,81.54
2022-09-26T19:36:13.508Z,81.79
2022-09-26T19:37:46.826Z,82.09
2022-09-26T19:39:18.944Z,81.95
2022-09-26T19:40:53.882Z,81.52
2022-09-26T19:42:26.261Z,80.71
2022-09-26T19:43:57.766Z,80.63
2022-09-26T19:45:32.319Z,80.96
2022-09-26T19:47:04.674Z,81.09
2022-09-26T19:48:38.869Z,81.12
2022-09-26T19:50:13.216Z,81.81
2022-09-26T19:51:44.984Z,81.65
2022-09-26T19:53:19.377Z,81.69
2022-09-26T19:54:50.894Z,81.69
2022-09-26T19:56:22.445Z,81.94
2022-09-26T19:57:54.371Z,81.55
2022-09-26T19:59:27.668Z,81.72
2022-09-26T20:01:02.064Z,81.76
2022-09-26T20:02:33.752Z,81.77
2022-09-26T20:04:12.950Z,81.62
2022-09-26T20:05:45.042Z,81.23
2022-09-26T20:07:18.251Z,81.27
2022-09-26T20:08:53.760Z,80.97
2022-09-26T20:10:27.074Z,80.98
2022-09-26T20:11:58.575Z,80.80
2022-09-26T20:13:50.175Z,80.65
2022-09-26T20:15:21.887Z,80.33
2022-09-26T20:16:56.064Z,80.46
2022-09-26T20:18:27.643Z,80.65
2022-09-26T20:19:59.323Z,80.39
2022-09-26T20:21:31.220Z,80.29
2022-09-26T20:23:02.773Z,80.08
2022-09-26T20:24:37.234Z,80.39
2022-09-26T20:26:09.838Z,80.59
2022-09-26T20:27:41.391Z,80.30
2022-09-26T20:29:14.714Z,80.88
2022-09-26T20:30:52.672Z,80.69
2022-09-26T20:32:24.338Z,81.59
2022-09-26T20:33:59.892Z,81.50
2022-09-26T20:35:35.497Z,81.15
2022-09-26T20:37:09.754Z,81.51
2022-09-26T20:38:45.929Z,81.32
2022-09-26T20:40:20.112Z,81.79
2022-09-26T20:41:52.001Z,81.41
2022-09-26T20:43:27.382Z,81.62
2022-09-26T20:44:59.171Z,82.42
2022-09-26T20:46:32.016Z,82.17
2022-09-26T20:48:04.261Z,81.76
2022-09-26T20:49:39.934Z,82.17
2022-09-26T20:51:17.801Z,82.56
2022-09-26T20:52:49.557Z,82.04
2022-09-26T20:54:25.457Z,81.93
2022-09-26T20:55:58.819Z,81.29
2022-09-26T20:57:30.924Z,81.58
2022-09-26T20:59:02.812Z,81.34
2022-09-26T21:00:35.306Z,81.45
2022-09-26T21:02:23.057Z,80.58
2022-09-26T21:03:55.451Z,80.32